createdAt,value
2017-07-12T00:00:39.489Z,1008.1
2017-07-12T00:01:20.390Z,1008.1
2017-07-12T00:02:01.294Z,1008.09
2017-07-12T00:02:42.183Z,1008.09
2017-07-12T00:03:23.083Z,1008.08
2017-07-12T00:04:03.983Z,1008.08
2017-07-12T00:04:44.868Z,1008.1
2017-07-12T00:05:25.779Z,1008.07
2017-07-12T00:06:06.675Z,1008.05
2017-07-12T00:06:47.560Z,1008.03
2017-07-12T00:07:28.450Z,1007.98
2017-07-12T00:08:09.353Z,1008.02
2017-07-12T00:08:50.236Z,1008.01
2017-07-12T00:09:31.138Z,1008
2017-07-12T00:10:12.023Z,1008.04
2017-07-12T00:10:52.907Z,1008.06
2017-07-12T00:11:33.795Z,1008.05
2017-07-12T00:12:14.700Z,1008.07
2017-07-12T00:12:55.591Z,1008.05
2017-07-12T00:13:36.483Z,1008.05
2017-07-12T00:14:17.398Z,1008.03
2017-07-12T00:14:58.278Z,1008.02
2017-07-12T00:15:39.177Z,1008.03
2017-07-12T00:16:20.059Z,1008.01
2017-07-12T00:17:00.949Z,1007.99
2017-07-12T00:17:41.843Z,1007.99
2017-07-12T00:18:22.729Z,1008.02
2017-07-12T00:19:03.615Z,1007.98
2017-07-12T00:19:44.520Z,1007.96
2017-07-12T00:20:25.405Z,1007.93
2017-07-12T00:21:06.302Z,1007.94
2017-07-12T00:21:47.192Z,1007.96
2017-07-12T00:22:28.083Z,1007.96
2017-07-12T00:23:08.948Z,1007.94
2017-07-12T00:23:49.836Z,1007.95
2017-07-12T00:24:30.738Z,1007.99
2017-07-12T00:25:11.617Z,1008.01
2017-07-12T00:25:52.513Z,1007.97
2017-07-12T00:26:33.421Z,1007.97
2017-07-12T00:27:14.299Z,1008.01
2017-07-12T00:27:55.205Z,1008.01
2017-07-12T00:28:36.097Z,1007.98
2017-07-12T00:29:16.986Z,1008
2017-07-12T00:29:57.881Z,1007.98
2017-07-12T00:30:38.786Z,1008.01
2017-07-12T00:31:19.674Z,1007.99
2017-07-12T00:32:00.573Z,1007.99
2017-07-12T00:32:41.458Z,1007.97
2017-07-12T00:33:22.347Z,1008
2017-07-12T00:34:03.249Z,1007.99
2017-07-12T00:34:44.123Z,1007.97
2017-07-12T00:35:25.002Z,1007.92
2017-07-12T00:36:05.904Z,1007.97
2017-07-12T00:36:46.793Z,1007.95
2017-07-12T00:37:27.689Z,1007.92
2017-07-12T00:38:08.569Z,1007.89
2017-07-12T00:38:49.463Z,1007.89
2017-07-12T00:39:30.351Z,1007.89
2017-07-12T00:40:11.243Z,1007.9
2017-07-12T00:40:52.140Z,1007.87
2017-07-12T00:41:33.030Z,1007.9
2017-07-12T00:42:13.921Z,1007.88
2017-07-12T00:42:54.825Z,1007.85
2017-07-12T00:43:35.719Z,1007.86
2017-07-12T00:44:16.605Z,1007.85
2017-07-12T00:44:57.499Z,1007.85
2017-07-12T00:45:38.385Z,1007.83
2017-07-12T00:46:19.285Z,1007.83
2017-07-12T00:47:00.186Z,1007.82
2017-07-12T00:47:41.073Z,1007.85
2017-07-12T00:48:21.974Z,1007.81
2017-07-12T00:49:02.857Z,1007.83
2017-07-12T00:49:43.743Z,1007.8
2017-07-12T00:50:24.640Z,1007.76
2017-07-12T00:51:05.548Z,1007.83
2017-07-12T00:51:46.430Z,1007.82
2017-07-12T00:52:27.329Z,1007.8
2017-07-12T00:53:08.218Z,1007.79
2017-07-12T00:53:49.101Z,1007.81
2017-07-12T00:54:30.001Z,1007.82
2017-07-12T00:55:10.911Z,1007.81
2017-07-12T00:55:51.775Z,1007.82
2017-07-12T00:56:32.659Z,1007.83
2017-07-12T00:57:13.561Z,1007.81
2017-07-12T00:57:54.446Z,1007.81
2017-07-12T00:58:35.337Z,1007.83
2017-07-12T00:59:16.225Z,1007.82
2017-07-12T00:59:57.116Z,1007.81
2017-07-12T01:00:37.990Z,1007.8
2017-07-12T01:01:18.880Z,1007.8
2017-07-12T01:01:59.770Z,1007.8
2017-07-12T01:02:40.663Z,1007.8
2017-07-12T01:03:21.541Z,1007.8
2017-07-12T01:04:02.450Z,1007.82
2017-07-12T01:04:43.333Z,1007.8
2017-07-12T01:05:24.226Z,1007.77
2017-07-12T01:06:05.126Z,1007.72
2017-07-12T01:06:46.010Z,1007.74
2017-07-12T01:07:26.903Z,1007.72
2017-07-12T01:08:07.799Z,1007.74
2017-07-12T01:08:48.695Z,1007.74
2017-07-12T01:09:29.574Z,1007.72
2017-07-12T01:10:10.474Z,1007.72
2017-07-12T01:10:51.366Z,1007.72
2017-07-12T01:11:32.260Z,1007.74
2017-07-12T01:12:13.153Z,1007.75
2017-07-12T01:12:54.041Z,1007.72
2017-07-12T01:13:34.968Z,1007.71
2017-07-12T01:14:15.856Z,1007.68
2017-07-12T01:14:56.739Z,1007.66
2017-07-12T01:15:37.635Z,1007.66
2017-07-12T01:16:18.525Z,1007.63
2017-07-12T01:16:59.414Z,1007.64
2017-07-12T01:17:40.317Z,1007.65
2017-07-12T01:18:21.205Z,1007.62
2017-07-12T01:19:02.125Z,1007.63
2017-07-12T01:19:43.015Z,1007.64
2017-07-12T01:20:23.906Z,1007.61
2017-07-12T01:21:04.799Z,1007.61
2017-07-12T01:21:45.693Z,1007.6
2017-07-12T01:22:26.572Z,1007.62
2017-07-12T01:23:07.466Z,1007.59
2017-07-12T01:23:48.358Z,1007.61
2017-07-12T01:24:29.240Z,1007.6
2017-07-12T01:25:10.131Z,1007.6
2017-07-12T01:25:51.025Z,1007.56
2017-07-12T01:26:31.904Z,1007.51
2017-07-12T01:27:12.806Z,1007.51
2017-07-12T01:27:53.699Z,1007.53
2017-07-12T01:28:34.579Z,1007.5
2017-07-12T01:29:15.471Z,1007.52
2017-07-12T01:29:56.376Z,1007.49
2017-07-12T01:30:37.269Z,1007.5
2017-07-12T01:31:18.170Z,1007.49
2017-07-12T01:31:59.052Z,1007.51
2017-07-12T01:32:39.949Z,1007.47
2017-07-12T01:33:20.838Z,1007.49
2017-07-12T01:34:01.734Z,1007.49
2017-07-12T01:34:42.625Z,1007.53
2017-07-12T01:35:23.523Z,1007.52
2017-07-12T01:36:04.416Z,1007.54
2017-07-12T01:36:45.300Z,1007.56
2017-07-12T01:37:26.195Z,1007.59
2017-07-12T01:38:07.089Z,1007.55
2017-07-12T01:38:47.973Z,1007.54
2017-07-12T01:39:28.873Z,1007.53
2017-07-12T01:40:09.765Z,1007.49
2017-07-12T01:40:50.658Z,1007.51
2017-07-12T01:41:31.561Z,1007.5
2017-07-12T01:42:12.439Z,1007.49
2017-07-12T01:42:53.334Z,1007.44
2017-07-12T01:43:34.232Z,1007.47
2017-07-12T01:44:15.126Z,1007.49
2017-07-12T01:44:56.021Z,1007.44
2017-07-12T01:45:36.915Z,1007.46
2017-07-12T01:46:17.802Z,1007.47
2017-07-12T01:46:58.692Z,1007.45
2017-07-12T01:47:39.588Z,1007.43
2017-07-12T01:48:20.472Z,1007.42
2017-07-12T01:49:01.347Z,1007.38
2017-07-12T01:49:42.247Z,1007.36
2017-07-12T01:50:23.133Z,1007.35
2017-07-12T01:51:04.030Z,1007.36
2017-07-12T01:51:44.921Z,1007.32
2017-07-12T01:52:25.818Z,1007.38
2017-07-12T01:53:06.716Z,1007.37
2017-07-12T01:53:47.614Z,1007.36
2017-07-12T01:54:28.510Z,1007.35
2017-07-12T01:55:09.401Z,1007.31
2017-07-12T01:55:50.292Z,1007.34
2017-07-12T01:56:31.181Z,1007.31
2017-07-12T01:57:12.076Z,1007.27
2017-07-12T01:57:52.975Z,1007.31
2017-07-12T01:58:33.865Z,1007.28
2017-07-12T01:59:14.771Z,1007.26
2017-07-12T01:59:55.660Z,1007.26
2017-07-12T02:00:36.552Z,1007.25
2017-07-12T02:01:17.443Z,1007.22
2017-07-12T02:01:58.333Z,1007.25
2017-07-12T02:02:39.224Z,1007.24
2017-07-12T02:03:20.142Z,1007.25
2017-07-12T02:04:01.022Z,1007.24
2017-07-12T02:04:41.909Z,1007.27
2017-07-12T02:05:22.806Z,1007.28
2017-07-12T02:06:03.688Z,1007.25
2017-07-12T02:06:44.577Z,1007.23
2017-07-12T02:07:25.467Z,1007.24
2017-07-12T02:08:06.363Z,1007.26
2017-07-12T02:08:47.261Z,1007.24
2017-07-12T02:09:28.147Z,1007.23
2017-07-12T02:10:09.039Z,1007.28
2017-07-12T02:10:49.925Z,1007.24
2017-07-12T02:11:30.819Z,1007.24
2017-07-12T02:12:11.717Z,1007.26
2017-07-12T02:12:52.612Z,1007.28
2017-07-12T02:13:33.502Z,1007.27
2017-07-12T02:14:14.391Z,1007.28
2017-07-12T02:14:55.289Z,1007.26
2017-07-12T02:15:36.190Z,1007.3
2017-07-12T02:16:17.068Z,1007.28
2017-07-12T02:16:57.964Z,1007.28
2017-07-12T02:17:38.856Z,1007.28
2017-07-12T02:18:19.746Z,1007.28
2017-07-12T02:19:00.633Z,1007.27
2017-07-12T02:19:41.531Z,1007.29
2017-07-12T02:20:22.426Z,1007.29
2017-07-12T02:21:03.305Z,1007.3
2017-07-12T02:21:44.192Z,1007.26
2017-07-12T02:22:25.087Z,1007.3
2017-07-12T02:23:05.971Z,1007.33
2017-07-12T02:23:46.858Z,1007.32
2017-07-12T02:24:27.761Z,1007.3
2017-07-12T02:25:08.645Z,1007.28
2017-07-12T02:25:49.529Z,1007.26
2017-07-12T02:26:30.441Z,1007.24
2017-07-12T02:27:11.308Z,1007.28
2017-07-12T02:27:52.190Z,1007.3
2017-07-12T02:28:33.086Z,1007.27
2017-07-12T02:29:13.977Z,1007.3
2017-07-12T02:29:54.863Z,1007.36
2017-07-12T02:30:35.760Z,1007.37
2017-07-12T02:31:16.651Z,1007.35
2017-07-12T02:31:57.561Z,1007.37
2017-07-12T02:32:38.467Z,1007.37
2017-07-12T02:33:19.356Z,1007.37
2017-07-12T02:34:00.261Z,1007.37
2017-07-12T02:34:41.160Z,1007.39
2017-07-12T02:35:22.039Z,1007.4
2017-07-12T02:36:02.936Z,1007.43
2017-07-12T02:36:43.824Z,1007.41
2017-07-12T02:37:24.721Z,1007.39
2017-07-12T02:38:05.619Z,1007.4
2017-07-12T02:38:46.502Z,1007.39
2017-07-12T02:39:27.404Z,1007.38
2017-07-12T02:40:08.307Z,1007.37
2017-07-12T02:40:49.195Z,1007.36
2017-07-12T02:41:30.092Z,1007.34
2017-07-12T02:42:10.983Z,1007.32
2017-07-12T02:42:51.871Z,1007.33
2017-07-12T02:43:32.770Z,1007.34
2017-07-12T02:44:13.659Z,1007.33
2017-07-12T02:44:54.551Z,1007.32
2017-07-12T02:45:35.451Z,1007.32
2017-07-12T02:46:16.333Z,1007.31
2017-07-12T02:46:57.307Z,1007.28
2017-07-12T02:47:38.198Z,1007.31
2017-07-12T02:48:19.103Z,1007.3
2017-07-12T02:48:59.998Z,1007.29
2017-07-12T02:49:40.873Z,1007.29
2017-07-12T02:50:21.760Z,1007.31
2017-07-12T02:51:02.653Z,1007.31
2017-07-12T02:51:43.542Z,1007.31
2017-07-12T02:52:24.434Z,1007.3
2017-07-12T02:53:05.324Z,1007.26
2017-07-12T02:53:46.212Z,1007.28
2017-07-12T02:54:27.108Z,1007.27
2017-07-12T02:55:08.000Z,1007.23
2017-07-12T02:55:48.890Z,1007.26
2017-07-12T02:56:29.767Z,1007.24
2017-07-12T02:57:10.645Z,1007.22
2017-07-12T02:57:51.530Z,1007.22
2017-07-12T02:58:32.416Z,1007.21
2017-07-12T02:59:13.315Z,1007.22
2017-07-12T02:59:54.187Z,1007.18
2017-07-12T03:00:35.067Z,1007.21
2017-07-12T03:02:13.742Z,1007.2
2017-07-12T03:02:54.628Z,1007.19
2017-07-12T03:03:35.522Z,1007.15
2017-07-12T03:04:16.431Z,1007.15
2017-07-12T03:04:57.315Z,1007.16
2017-07-12T03:05:38.191Z,1007.19
2017-07-12T03:06:19.099Z,1007.17
2017-07-12T03:06:59.988Z,1007.17
2017-07-12T03:07:40.872Z,1007.23
2017-07-12T03:08:21.778Z,1007.24
2017-07-12T03:09:02.666Z,1007.2
2017-07-12T03:09:43.569Z,1007.21
2017-07-12T03:10:24.470Z,1007.22
2017-07-12T03:11:05.361Z,1007.2
2017-07-12T03:11:46.256Z,1007.15
2017-07-12T03:12:27.143Z,1007.18
2017-07-12T03:13:08.031Z,1007.22
2017-07-12T03:13:48.924Z,1007.21
2017-07-12T03:14:29.814Z,1007.19
2017-07-12T03:15:10.703Z,1007.21
2017-07-12T03:15:51.597Z,1007.22
2017-07-12T03:16:32.482Z,1007.24
2017-07-12T03:17:13.370Z,1007.24
2017-07-12T03:17:54.265Z,1007.21
2017-07-12T03:18:35.170Z,1007.24
2017-07-12T03:19:16.071Z,1007.24
2017-07-12T03:19:56.962Z,1007.25
2017-07-12T03:20:37.855Z,1007.21
2017-07-12T03:21:18.747Z,1007.24
2017-07-12T03:21:59.634Z,1007.23
2017-07-12T03:22:40.526Z,1007.22
2017-07-12T03:23:21.418Z,1007.22
2017-07-12T03:24:02.312Z,1007.21
2017-07-12T03:24:43.209Z,1007.2
2017-07-12T03:25:24.096Z,1007.23
2017-07-12T03:26:04.987Z,1007.22
2017-07-12T03:26:45.884Z,1007.2
2017-07-12T03:27:26.768Z,1007.2
2017-07-12T03:28:07.674Z,1007.27
2017-07-12T03:28:48.561Z,1007.23
2017-07-12T03:29:29.456Z,1007.23
2017-07-12T03:30:10.370Z,1007.25
2017-07-12T03:30:51.263Z,1007.24
2017-07-12T03:31:32.159Z,1007.24
2017-07-12T03:32:13.052Z,1007.25
2017-07-12T03:32:53.959Z,1007.25
2017-07-12T03:33:34.856Z,1007.25
2017-07-12T03:34:15.742Z,1007.27
2017-07-12T03:34:56.628Z,1007.23
2017-07-12T03:35:37.523Z,1007.24
2017-07-12T03:36:18.414Z,1007.24
2017-07-12T03:36:59.311Z,1007.24
2017-07-12T03:37:40.199Z,1007.24
2017-07-12T03:38:21.081Z,1007.25
2017-07-12T03:39:01.963Z,1007.24
2017-07-12T03:39:42.858Z,1007.2
2017-07-12T03:40:23.749Z,1007.23
2017-07-12T03:41:04.674Z,1007.21
2017-07-12T03:41:45.573Z,1007.18
2017-07-12T03:42:26.465Z,1007.2
2017-07-12T03:43:07.365Z,1007.18
2017-07-12T03:43:48.269Z,1007.18
2017-07-12T03:44:29.139Z,1007.16
2017-07-12T03:45:10.043Z,1007.15
2017-07-12T03:45:50.935Z,1007.16
2017-07-12T03:46:31.833Z,1007.11
2017-07-12T03:47:12.760Z,1007.13
2017-07-12T03:47:53.651Z,1007.12
2017-07-12T03:48:34.544Z,1007.08
2017-07-12T03:49:15.432Z,1007.05
2017-07-12T03:49:56.328Z,1007.08
2017-07-12T03:50:37.217Z,1007.1
2017-07-12T03:51:18.190Z,1007.11
2017-07-12T03:51:59.057Z,1007.08
2017-07-12T03:52:39.940Z,1007.09
2017-07-12T03:53:20.830Z,1007.05
2017-07-12T03:54:01.737Z,1007.08
2017-07-12T03:54:42.628Z,1007.09
2017-07-12T03:55:23.523Z,1007.06
2017-07-12T03:56:04.410Z,1007.04
2017-07-12T03:56:45.303Z,1007.07
2017-07-12T03:57:26.195Z,1007.04
2017-07-12T03:58:07.089Z,1007.06
2017-07-12T03:58:47.988Z,1007.03
2017-07-12T03:59:28.887Z,1007.04
2017-07-12T04:00:09.788Z,1007.02
2017-07-12T04:00:50.677Z,1007.05
2017-07-12T04:01:31.569Z,1007.04
2017-07-12T04:02:12.457Z,1007.02
2017-07-12T04:02:53.349Z,1007.04
2017-07-12T04:03:34.245Z,1007.04
2017-07-12T04:04:15.123Z,1007.03
2017-07-12T04:04:56.035Z,1007.01
2017-07-12T04:05:36.927Z,1007.07
2017-07-12T04:06:17.818Z,1007.07
2017-07-12T04:06:58.719Z,1007.1
2017-07-12T04:07:39.614Z,1007.09
2017-07-12T04:08:20.493Z,1007.1
2017-07-12T04:09:01.391Z,1007.08
2017-07-12T04:09:42.296Z,1007.1
2017-07-12T04:10:23.177Z,1007.1
2017-07-12T04:11:04.069Z,1007.11
2017-07-12T04:11:44.965Z,1007.12
2017-07-12T04:12:25.840Z,1007.09
2017-07-12T04:13:06.711Z,1007.11
2017-07-12T04:13:47.604Z,1007.07
2017-07-12T04:14:28.503Z,1007.1
2017-07-12T04:15:09.388Z,1007.07
2017-07-12T04:15:50.287Z,1007.12
2017-07-12T04:17:59.322Z,1007.1
2017-07-12T04:18:40.219Z,1007.07
2017-07-12T04:19:21.120Z,1007.1
2017-07-12T04:20:02.012Z,1007.13
2017-07-12T04:20:42.921Z,1007.09
2017-07-12T04:22:51.941Z,1007.14
2017-07-12T04:23:32.849Z,1007.13
2017-07-12T04:24:13.737Z,1007.1
2017-07-12T04:24:54.637Z,1007.12
2017-07-12T04:25:35.541Z,1007.14
2017-07-12T04:26:16.437Z,1007.12
2017-07-12T04:26:57.332Z,1007.11
2017-07-12T04:27:38.218Z,1007.14
2017-07-12T04:28:19.116Z,1007.13
2017-07-12T04:29:00.023Z,1007.14
2017-07-12T04:29:40.933Z,1007.13
2017-07-12T04:30:21.808Z,1007.19
2017-07-12T04:31:02.693Z,1007.16
2017-07-12T04:31:43.576Z,1007.16
2017-07-12T04:32:24.487Z,1007.15
2017-07-12T04:33:05.355Z,1007.19
2017-07-12T04:33:46.247Z,1007.18
2017-07-12T04:34:27.142Z,1007.17
2017-07-12T04:35:08.038Z,1007.17
2017-07-12T04:35:48.923Z,1007.16
2017-07-12T04:36:29.817Z,1007.16
2017-07-12T04:37:10.720Z,1007.16
2017-07-12T04:37:51.603Z,1007.08
2017-07-12T04:38:32.499Z,1007.08
2017-07-12T04:39:13.397Z,1007.06
2017-07-12T04:39:54.277Z,1007.06
2017-07-12T04:40:35.170Z,1007.03
2017-07-12T04:41:16.050Z,1007.03
2017-07-12T04:41:56.941Z,1007.08
2017-07-12T04:42:37.843Z,1007.05
2017-07-12T04:43:18.737Z,1007.06
2017-07-12T04:43:59.628Z,1007.03
2017-07-12T04:44:40.522Z,1007.04
2017-07-12T04:45:21.422Z,1007.03
2017-07-12T04:46:02.302Z,1007.02
2017-07-12T04:46:43.192Z,1007.03
2017-07-12T04:47:24.086Z,1007.01
2017-07-12T04:48:04.981Z,1007.02
2017-07-12T04:48:45.883Z,1007.04
2017-07-12T04:49:26.798Z,1007.05
2017-07-12T04:50:07.679Z,1007.07
2017-07-12T04:50:48.575Z,1007.07
2017-07-12T04:51:29.459Z,1007.08
2017-07-12T04:52:10.358Z,1007.05
2017-07-12T04:52:51.251Z,1007.06
2017-07-12T04:53:32.141Z,1007.02
2017-07-12T04:54:13.039Z,1007.05
2017-07-12T04:54:53.920Z,1006.98
2017-07-12T04:55:34.814Z,1007
2017-07-12T04:56:15.733Z,1007.03
2017-07-12T04:56:56.631Z,1006.99
2017-07-12T04:57:37.521Z,1007
2017-07-12T04:58:18.420Z,1007.01
2017-07-12T04:58:59.317Z,1006.98
2017-07-12T04:59:40.198Z,1006.99
2017-07-12T05:00:21.094Z,1006.96
2017-07-12T05:01:01.981Z,1006.97
2017-07-12T05:01:42.874Z,1006.95
2017-07-12T05:02:23.860Z,1006.96
2017-07-12T05:03:04.675Z,1006.96
2017-07-12T05:03:45.574Z,1006.95
2017-07-12T05:04:26.460Z,1006.92
2017-07-12T05:05:07.348Z,1006.93
2017-07-12T05:05:48.239Z,1006.92
2017-07-12T05:06:29.136Z,1006.91
2017-07-12T05:07:10.022Z,1006.93
2017-07-12T05:07:50.916Z,1006.92
2017-07-12T05:08:31.806Z,1006.94
2017-07-12T05:09:12.699Z,1006.96
2017-07-12T05:09:53.600Z,1006.95
2017-07-12T05:10:34.491Z,1006.97
2017-07-12T05:11:15.482Z,1006.98
2017-07-12T05:11:56.375Z,1007
2017-07-12T05:12:37.270Z,1006.99
2017-07-12T05:13:18.160Z,1007.01
2017-07-12T05:13:59.054Z,1007.02
2017-07-12T05:14:39.942Z,1007.02
2017-07-12T05:15:20.843Z,1007.04
2017-07-12T05:16:01.730Z,1007.05
2017-07-12T05:16:42.624Z,1007.02
2017-07-12T05:17:23.513Z,1007.04
2017-07-12T05:18:04.408Z,1007.03
2017-07-12T05:18:45.322Z,1007.02
2017-07-12T05:19:26.210Z,1006.97
2017-07-12T05:20:07.093Z,1006.99
2017-07-12T05:20:47.988Z,1007
2017-07-12T05:21:28.880Z,1006.96
2017-07-12T05:22:09.778Z,1006.98
2017-07-12T05:22:50.659Z,1007
2017-07-12T05:23:31.563Z,1007
2017-07-12T05:24:12.435Z,1007
2017-07-12T05:24:53.325Z,1007.02
2017-07-12T05:25:34.283Z,1007
2017-07-12T05:26:15.139Z,1007.02
2017-07-12T05:26:56.048Z,1007
2017-07-12T05:27:36.942Z,1006.98
2017-07-12T05:28:17.836Z,1006.99
2017-07-12T05:28:58.805Z,1006.96
2017-07-12T05:29:39.716Z,1006.95
2017-07-12T05:30:20.603Z,1006.94
2017-07-12T05:31:01.502Z,1006.96
2017-07-12T05:31:42.395Z,1006.95
2017-07-12T05:32:23.281Z,1006.94
2017-07-12T05:33:04.178Z,1006.93
2017-07-12T05:33:45.068Z,1006.92
2017-07-12T05:34:25.952Z,1006.91
2017-07-12T05:35:06.860Z,1006.91
2017-07-12T05:35:47.766Z,1006.87
2017-07-12T05:36:28.670Z,1006.86
2017-07-12T05:37:09.563Z,1006.84
2017-07-12T05:37:50.454Z,1006.87
2017-07-12T05:38:31.348Z,1006.86
2017-07-12T05:39:12.232Z,1006.88
2017-07-12T05:39:53.119Z,1006.87
2017-07-12T05:40:34.016Z,1006.87
2017-07-12T05:41:14.916Z,1006.89
2017-07-12T05:41:55.846Z,1006.9
2017-07-12T05:42:36.749Z,1006.85
2017-07-12T05:43:17.646Z,1006.89
2017-07-12T05:43:58.527Z,1006.87
2017-07-12T05:44:39.433Z,1006.86
2017-07-12T05:45:20.332Z,1006.81
2017-07-12T05:46:01.259Z,1006.79
2017-07-12T05:46:42.147Z,1006.8
2017-07-12T05:47:23.044Z,1006.78
2017-07-12T05:48:03.948Z,1006.73
2017-07-12T05:48:44.833Z,1006.7
2017-07-12T05:49:25.756Z,1006.66
2017-07-12T05:50:06.653Z,1006.66
2017-07-12T05:50:47.556Z,1006.68
2017-07-12T05:51:28.434Z,1006.67
2017-07-12T05:52:09.325Z,1006.63
2017-07-12T05:52:50.231Z,1006.62
2017-07-12T05:53:31.100Z,1006.61
2017-07-12T05:54:11.992Z,1006.65
2017-07-12T05:54:52.878Z,1006.65
2017-07-12T05:55:33.769Z,1006.6
2017-07-12T05:56:14.679Z,1006.63
2017-07-12T05:56:55.580Z,1006.66
2017-07-12T05:57:36.526Z,1006.61
2017-07-12T05:58:17.425Z,1006.66
2017-07-12T05:58:58.329Z,1006.66
2017-07-12T05:59:39.242Z,1006.66
2017-07-12T06:00:20.137Z,1006.66
2017-07-12T06:01:01.038Z,1006.61
2017-07-12T06:01:41.926Z,1006.64
2017-07-12T06:02:22.811Z,1006.63
2017-07-12T06:03:03.714Z,1006.63
2017-07-12T06:03:44.597Z,1006.64
2017-07-12T06:04:25.498Z,1006.65
2017-07-12T06:05:06.391Z,1006.62
2017-07-12T06:05:47.264Z,1006.6
2017-07-12T06:06:28.165Z,1006.64
2017-07-12T06:07:09.067Z,1006.63
2017-07-12T06:07:49.978Z,1006.62
2017-07-12T06:08:30.855Z,1006.62
2017-07-12T06:09:11.745Z,1006.55
2017-07-12T06:09:52.641Z,1006.59
2017-07-12T06:10:33.546Z,1006.6
2017-07-12T06:11:14.472Z,1006.56
2017-07-12T06:11:55.377Z,1006.59
2017-07-12T06:12:36.257Z,1006.58
2017-07-12T06:13:17.176Z,1006.53
2017-07-12T06:13:58.060Z,1006.54
2017-07-12T06:14:38.947Z,1006.5
2017-07-12T06:15:19.854Z,1006.49
2017-07-12T06:16:00.751Z,1006.47
2017-07-12T06:16:41.629Z,1006.46
2017-07-12T06:17:22.548Z,1006.44
2017-07-12T06:18:03.446Z,1006.43
2017-07-12T06:18:44.346Z,1006.44
2017-07-12T06:19:25.238Z,1006.43
2017-07-12T06:20:06.239Z,1006.41
2017-07-12T06:20:47.057Z,1006.38
2017-07-12T06:21:27.952Z,1006.4
2017-07-12T06:22:08.846Z,1006.44
2017-07-12T06:22:49.732Z,1006.43
2017-07-12T06:23:30.619Z,1006.44
2017-07-12T06:24:11.521Z,1006.45
2017-07-12T06:24:52.416Z,1006.43
2017-07-12T06:25:33.326Z,1006.46
2017-07-12T06:26:14.211Z,1006.45
2017-07-12T06:26:55.108Z,1006.43
2017-07-12T06:27:36.029Z,1006.45
2017-07-12T06:28:16.954Z,1006.44
2017-07-12T06:28:57.856Z,1006.42
2017-07-12T06:29:38.751Z,1006.42
2017-07-12T06:30:19.647Z,1006.46
2017-07-12T06:31:00.530Z,1006.44
2017-07-12T06:31:41.423Z,1006.43
2017-07-12T06:32:22.321Z,1006.46
2017-07-12T06:33:03.206Z,1006.45
2017-07-12T06:33:44.110Z,1006.42
2017-07-12T06:34:25.000Z,1006.43
2017-07-12T06:35:05.910Z,1006.43
2017-07-12T06:35:46.823Z,1006.42
2017-07-12T06:36:27.695Z,1006.41
2017-07-12T06:37:08.585Z,1006.42
2017-07-12T06:37:49.490Z,1006.39
2017-07-12T06:38:30.383Z,1006.41
2017-07-12T06:39:11.264Z,1006.37
2017-07-12T06:39:52.162Z,1006.39
2017-07-12T06:40:33.056Z,1006.4
2017-07-12T06:41:13.970Z,1006.38
2017-07-12T06:41:54.876Z,1006.38
2017-07-12T06:42:35.739Z,1006.32
2017-07-12T06:43:16.612Z,1006.35
2017-07-12T06:43:57.533Z,1006.34
2017-07-12T06:44:38.428Z,1006.37
2017-07-12T06:45:19.328Z,1006.3
2017-07-12T06:46:57.759Z,1006.32
2017-07-12T06:47:38.635Z,1006.3
2017-07-12T06:48:19.533Z,1006.33
2017-07-12T06:49:00.424Z,1006.27
2017-07-12T06:49:41.311Z,1006.25
2017-07-12T06:50:22.205Z,1006.27
2017-07-12T06:51:03.106Z,1006.29
2017-07-12T06:51:44.011Z,1006.25
2017-07-12T06:52:24.905Z,1006.2
2017-07-12T06:53:05.794Z,1006.22
2017-07-12T06:53:46.702Z,1006.21
2017-07-12T06:54:27.583Z,1006.25
2017-07-12T06:55:08.526Z,1006.22
2017-07-12T06:55:49.422Z,1006.22
2017-07-12T06:56:30.307Z,1006.24
2017-07-12T06:57:11.210Z,1006.19
2017-07-12T06:57:52.110Z,1006.25
2017-07-12T06:58:32.970Z,1006.23
2017-07-12T06:59:13.859Z,1006.22
2017-07-12T06:59:54.878Z,1006.17
2017-07-12T07:00:35.755Z,1006.2
2017-07-12T07:01:16.644Z,1006.21
2017-07-12T07:01:57.558Z,1006.21
2017-07-12T07:02:38.436Z,1006.19
2017-07-12T07:03:19.332Z,1006.19
2017-07-12T07:04:00.247Z,1006.13
2017-07-12T07:04:41.134Z,1006.11
2017-07-12T07:05:22.045Z,1006.11
2017-07-12T07:06:02.940Z,1006.08
2017-07-12T07:06:43.873Z,1006.14
2017-07-12T07:07:24.758Z,1006.07
2017-07-12T07:08:05.642Z,1006.09
2017-07-12T07:08:46.549Z,1006.07
2017-07-12T07:09:27.514Z,1006.05
2017-07-12T07:10:08.355Z,1006.03
2017-07-12T07:10:49.249Z,1006.05
2017-07-12T07:11:30.159Z,1006.08
2017-07-12T07:12:11.096Z,1006.09
2017-07-12T07:12:51.994Z,1006.09
2017-07-12T07:13:32.890Z,1006.08
2017-07-12T07:14:13.791Z,1006.01
2017-07-12T07:14:54.687Z,1006.05
2017-07-12T07:15:35.603Z,1006.03
2017-07-12T07:16:16.502Z,1006.03
2017-07-12T07:16:57.407Z,1006.04
2017-07-12T07:17:38.303Z,1005.99
2017-07-12T07:18:19.195Z,1005.97
2017-07-12T07:19:00.096Z,1006.01
2017-07-12T07:19:40.986Z,1005.96
2017-07-12T07:20:21.946Z,1006.01
2017-07-12T07:21:02.827Z,1005.9
2017-07-12T07:21:43.728Z,1005.93
2017-07-12T07:22:24.638Z,1005.92
2017-07-12T07:23:05.525Z,1005.89
2017-07-12T07:23:46.433Z,1005.88
2017-07-12T07:24:27.322Z,1005.85
2017-07-12T07:25:08.229Z,1005.85
2017-07-12T07:25:49.121Z,1005.88
2017-07-12T07:26:30.035Z,1005.89
2017-07-12T07:27:10.927Z,1005.88
2017-07-12T07:27:51.824Z,1005.88
2017-07-12T07:28:32.732Z,1005.84
2017-07-12T07:29:13.626Z,1005.85
2017-07-12T07:29:54.519Z,1005.87
2017-07-12T07:30:35.423Z,1005.86
2017-07-12T07:31:16.306Z,1005.91
2017-07-12T07:31:57.226Z,1005.87
2017-07-12T07:32:38.115Z,1005.84
2017-07-12T07:33:19.029Z,1005.86
2017-07-12T07:33:59.928Z,1005.79
2017-07-12T07:34:40.820Z,1005.85
2017-07-12T07:35:21.763Z,1005.86
2017-07-12T07:36:02.618Z,1005.8
2017-07-12T07:36:43.536Z,1005.77
2017-07-12T07:37:24.454Z,1005.81
2017-07-12T07:38:05.364Z,1005.81
2017-07-12T07:38:46.268Z,1005.8
2017-07-12T07:39:27.172Z,1005.8
2017-07-12T07:40:08.079Z,1005.8
2017-07-12T07:40:48.983Z,1005.79
2017-07-12T07:41:29.880Z,1005.81
2017-07-12T07:42:10.793Z,1005.78
2017-07-12T07:42:51.696Z,1005.75
2017-07-12T07:43:32.596Z,1005.72
2017-07-12T07:44:13.497Z,1005.73
2017-07-12T07:44:54.382Z,1005.66
2017-07-12T07:45:35.303Z,1005.65
2017-07-12T07:46:16.187Z,1005.66
2017-07-12T07:46:57.133Z,1005.62
2017-07-12T07:47:37.994Z,1005.59
2017-07-12T07:48:18.894Z,1005.56
2017-07-12T07:48:59.805Z,1005.57
2017-07-12T07:49:40.700Z,1005.55
2017-07-12T07:50:21.608Z,1005.53
2017-07-12T07:51:02.501Z,1005.49
2017-07-12T07:51:43.417Z,1005.44
2017-07-12T07:52:24.319Z,1005.39
2017-07-12T07:53:05.218Z,1005.42
2017-07-12T07:53:46.133Z,1005.35
2017-07-12T07:54:27.021Z,1005.33
2017-07-12T07:55:07.935Z,1005.32
2017-07-12T07:55:48.814Z,1005.29
2017-07-12T07:56:29.714Z,1005.22
2017-07-12T07:57:10.615Z,1005.2
2017-07-12T07:57:51.515Z,1005.14
2017-07-12T07:58:32.432Z,1005.17
2017-07-12T07:59:13.317Z,1005.15
2017-07-12T07:59:54.227Z,1005.13
2017-07-12T08:00:35.114Z,1005.17
2017-07-12T08:01:15.991Z,1005.21
2017-07-12T08:01:56.900Z,1005.23
2017-07-12T08:02:37.851Z,1005.24
2017-07-12T08:03:18.694Z,1005.22
2017-07-12T08:03:59.602Z,1005.24
2017-07-12T08:04:40.512Z,1005.22
2017-07-12T08:05:21.424Z,1005.26
2017-07-12T08:06:02.363Z,1005.24
2017-07-12T08:06:43.249Z,1005.23
2017-07-12T08:07:24.160Z,1005.25
2017-07-12T08:08:05.060Z,1005.22
2017-07-12T08:08:45.974Z,1005.24
2017-07-12T08:09:26.882Z,1005.21
2017-07-12T08:10:07.798Z,1005.24
2017-07-12T08:10:48.690Z,1005.24
2017-07-12T08:11:29.606Z,1005.31
2017-07-12T08:12:10.514Z,1005.25
2017-07-12T08:12:51.423Z,1005.28
2017-07-12T08:13:32.335Z,1005.32
2017-07-12T08:14:13.244Z,1005.33
2017-07-12T08:14:54.145Z,1005.33
2017-07-12T08:15:35.054Z,1005.34
2017-07-12T08:16:15.966Z,1005.36
2017-07-12T08:16:56.875Z,1005.31
2017-07-12T08:17:37.802Z,1005.27
2017-07-12T08:18:18.697Z,1005.28
2017-07-12T08:18:59.597Z,1005.23
2017-07-12T08:19:40.494Z,1005.26
2017-07-12T08:20:21.418Z,1005.2
2017-07-12T08:21:02.303Z,1005.21
2017-07-12T08:21:43.219Z,1005.19